Ralston, Wyoming
Current Conditions -  °F | °C
As of 6:35 PM on Monday 24 Nov 2014 (Local Time) from KPOY Reporting Station
Clear Clear  
Wind Chill: 30°   Ceiling: Unl
Heat Index: 30°   Visibility: 10mi
Dew Point: 12°   Wind: 3mph
Humidity: 47%   Direction: 170°S
Pressure: 30.1"   Gusts: NA
Location:  44.72°N, 108.87°W
Report Text: KPOY 250135Z AUTO 17003KT 10SM CLR M01/M11 A3010 RMK AO2
Loading
Personal Weather Stations






























Interactive Weather Map New forecast layout! Learn more

10-Day Weather Forecast

Advertisements
Track Severe Weather on mobile